Time;durP1;ratioP1;P1;durP2;ratioP2;P2;SDS_P1;SDS_P2;PMS_P1;PMS_P2;Temp;Humidity;BMP_temperature;BMP_pressure;BME280_temperature;BME280_humidity;BME280_pressure;Samples;Min_cycle;Max_cycle;Signal;HPM_P1;HPM_P2
2022/07/08 00:01:08;;;;;;;5.13;0.90;;;;;;;;;;5011628;28;20034;-74
2022/07/08 00:03:33;;;;;;;3.67;1.00;;;;;;;;;;5022048;28;20504;-74
2022/07/08 00:05:59;;;;;;;3.88;1.15;;;;;;;;;;5011935;28;20041;-73
2022/07/08 00:08:26;;;;;;;4.13;0.98;;;;;;;;;;5010609;28;20241;-74
2022/07/08 00:10:52;;;;;;;3.60;1.00;;;;;;;;;;5029961;28;20080;-74
2022/07/08 00:13:17;;;;;;;3.13;0.90;;;;;;;;;;5017118;28;20470;-75
2022/07/08 00:15:42;;;;;;;3.85;1.10;;;;;;;;;;5016478;28;20125;-72
2022/07/08 00:18:08;;;;;;;3.83;0.93;;;;;;;;;;5013580;28;20064;-74
2022/07/08 00:20:33;;;;;;;3.03;0.95;;;;;;;;;;5019407;28;20033;-75
2022/07/08 00:22:58;;;;;;;3.00;1.17;;;;;;;;;;5017905;28;20030;-75
2022/07/08 00:25:24;;;;;;;4.47;1.05;;;;;;;;;;5036006;28;20017;-74
2022/07/08 00:27:49;;;;;;;3.85;1.20;;;;;;;;;;5013246;28;20025;-75
2022/07/08 00:30:15;;;;;;;4.53;0.98;;;;;;;;;;5019124;28;20053;-74
2022/07/08 00:32:40;;;;;;;4.93;1.30;;;;;;;;;;5014725;28;20040;-76
2022/07/08 00:35:06;;;;;;;2.28;0.90;;;;;;;;;;5018092;28;20033;-72
2022/07/08 00:37:31;;;;;;;4.28;1.00;;;;;;;;;;5011034;28;20440;-73
2022/07/08 00:39:56;;;;;;;3.80;1.05;;;;;;;;;;5013621;28;20041;-75
2022/07/08 00:42:22;;;;;;;2.97;0.90;;;;;;;;;;5017991;28;20068;-73
2022/07/08 00:44:47;;;;;;;3.08;1.25;;;;;;;;;;5017020;28;20026;-75
2022/07/08 00:47:13;;;;;;;4.07;1.10;;;;;;;;;;5016860;28;20557;-75
2022/07/08 00:49:39;;;;;;;7.88;1.40;;;;;;;;;;5017387;28;20056;-75
2022/07/08 00:52:05;;;;;;;5.53;1.27;;;;;;;;;;5021613;28;20033;-75
2022/07/08 00:54:31;;;;;;;5.05;1.40;;;;;;;;;;5017213;28;20029;-75
2022/07/08 00:56:57;;;;;;;4.85;1.30;;;;;;;;;;5016614;28;20037;-74
2022/07/08 00:59:23;;;;;;;6.50;1.40;;;;;;;;;;5021029;28;20591;-75
2022/07/08 01:01:48;;;;;;;4.68;1.05;;;;;;;;;;5014369;28;20579;-75
2022/07/08 01:04:14;;;;;;;6.20;1.60;;;;;;;;;;5012189;28;20048;-74
2022/07/08 01:06:39;;;;;;;4.95;1.13;;;;;;;;;;5020597;28;20358;-74
2022/07/08 01:09:06;;;;;;;4.32;1.00;;;;;;;;;;5012854;28;20108;-74
2022/07/08 01:11:31;;;;;;;5.07;1.10;;;;;;;;;;5004200;28;20033;-74
2022/07/08 01:13:57;;;;;;;5.97;1.00;;;;;;;;;;5017469;28;20040;-73
2022/07/08 01:16:22;;;;;;;5.07;1.15;;;;;;;;;;5017212;28;20494;-73
2022/07/08 01:18:48;;;;;;;2.60;0.80;;;;;;;;;;5016114;28;20056;-75
2022/07/08 01:21:13;;;;;;;2.63;1.00;;;;;;;;;;5015422;28;20029;-73
2022/07/08 01:23:38;;;;;;;5.53;1.27;;;;;;;;;;5022455;28;20481;-75
2022/07/08 01:26:12;;;;;;;3.95;1.27;;;;;;;;;;5017214;28;20030;-73
2022/07/08 01:28:39;;;;;;;4.97;1.17;;;;;;;;;;5018257;28;20021;-76
2022/07/08 01:31:05;;;;;;;3.45;1.02;;;;;;;;;;5012564;28;20041;-73
2022/07/08 01:33:31;;;;;;;4.40;1.20;;;;;;;;;;5014289;28;20048;-74
2022/07/08 01:35:56;;;;;;;2.65;1.10;;;;;;;;;;5023458;28;20334;-74
2022/07/08 01:38:22;;;;;;;2.60;1.00;;;;;;;;;;5019440;28;20569;-74
2022/07/08 01:40:48;;;;;;;2.88;1.08;;;;;;;;;;5018565;28;20117;-74
2022/07/08 01:43:13;;;;;;;2.35;0.98;;;;;;;;;;5021281;28;20477;-75
2022/07/08 01:45:39;;;;;;;2.70;1.13;;;;;;;;;;5021994;28;20029;-75
2022/07/08 01:48:04;;;;;;;5.57;1.35;;;;;;;;;;5020514;28;20029;-74
2022/07/08 01:50:30;;;;;;;3.13;1.02;;;;;;;;;;5015474;28;20505;-74
2022/07/08 01:52:55;;;;;;;3.88;1.30;;;;;;;;;;5022838;28;20029;-75
2022/07/08 01:55:21;;;;;;;4.75;1.40;;;;;;;;;;5023144;28;20033;-74
2022/07/08 01:57:47;;;;;;;4.50;1.20;;;;;;;;;;5017795;28;20056;-75
2022/07/08 02:00:12;;;;;;;2.10;1.30;;;;;;;;;;5029430;28;20507;-75
2022/07/08 02:02:38;;;;;;;6.13;1.40;;;;;;;;;;5024114;28;20401;-73
2022/07/08 02:05:03;;;;;;;5.88;1.55;;;;;;;;;;5015418;28;20508;-75
2022/07/08 02:07:31;;;;;;;3.00;1.40;;;;;;;;;;5026726;28;20064;-75
2022/07/08 02:09:56;;;;;;;4.28;1.50;;;;;;;;;;5033133;28;20033;-75
2022/07/08 02:12:22;;;;;;;4.57;1.30;;;;;;;;;;5018181;28;20075;-76
2022/07/08 02:14:55;;;;;;;2.85;1.33;;;;;;;;;;5018856;28;20049;-76
2022/07/08 02:17:22;;;;;;;4.32;1.60;;;;;;;;;;5020143;28;20095;-72
2022/07/08 02:19:48;;;;;;;5.25;2.10;;;;;;;;;;5015820;28;20033;-75
2022/07/08 02:22:14;;;;;;;5.68;1.33;;;;;;;;;;5021677;28;20071;-76
2022/07/08 02:24:40;;;;;;;4.05;1.25;;;;;;;;;;5026095;28;20026;-75
2022/07/08 02:27:06;;;;;;;4.43;1.40;;;;;;;;;;5014186;28;20041;-72
2022/07/08 02:29:31;;;;;;;3.20;1.30;;;;;;;;;;5013484;28;20033;-75
2022/07/08 02:31:58;;;;;;;3.78;1.30;;;;;;;;;;5023761;28;20060;-74
2022/07/08 02:34:24;;;;;;;3.83;1.50;;;;;;;;;;5020688;28;20034;-75
2022/07/08 02:36:49;;;;;;;4.22;1.40;;;;;;;;;;5022238;28;20033;-75
2022/07/08 02:39:14;;;;;;;4.45;1.50;;;;;;;;;;5020503;28;20040;-74
2022/07/08 02:41:40;;;;;;;4.00;1.40;;;;;;;;;;5020227;28;20040;-74
2022/07/08 02:44:06;;;;;;;4.10;1.35;;;;;;;;;;5013310;28;20057;-73
2022/07/08 02:46:32;;;;;;;5.70;1.75;;;;;;;;;;5022538;28;20040;-75
2022/07/08 02:48:58;;;;;;;4.28;1.60;;;;;;;;;;5024903;28;20041;-74
2022/07/08 02:51:23;;;;;;;4.28;1.70;;;;;;;;;;5023567;28;20413;-75
2022/07/08 02:53:48;;;;;;;5.25;1.65;;;;;;;;;;5019700;28;20044;-75
2022/07/08 02:56:14;;;;;;;5.03;1.67;;;;;;;;;;5017124;28;20018;-75
2022/07/08 02:58:39;;;;;;;3.38;1.23;;;;;;;;;;5021650;28;20386;-75
2022/07/08 03:01:05;;;;;;;4.25;1.80;;;;;;;;;;5017652;28;20152;-73
2022/07/08 03:03:30;;;;;;;2.40;1.38;;;;;;;;;;5016545;28;20032;-73
2022/07/08 03:05:56;;;;;;;5.78;2.33;;;;;;;;;;5025239;28;20033;-75
2022/07/08 03:08:22;;;;;;;4.72;1.40;;;;;;;;;;5015770;28;20052;-74
2022/07/08 03:10:47;;;;;;;4.32;1.60;;;;;;;;;;5016834;28;20044;-75
2022/07/08 03:13:12;;;;;;;4.93;1.50;;;;;;;;;;5016637;28;20029;-76
2022/07/08 03:15:38;;;;;;;4.93;1.50;;;;;;;;;;5022866;28;20033;-75
2022/07/08 03:18:03;;;;;;;4.18;1.50;;;;;;;;;;5019651;28;20037;-75
2022/07/08 03:20:29;;;;;;;5.57;1.40;;;;;;;;;;5019343;28;20033;-73
2022/07/08 03:22:54;;;;;;;4.47;1.13;;;;;;;;;;5016808;28;20112;-76
2022/07/08 03:25:20;;;;;;;3.42;1.27;;;;;;;;;;5012025;28;20083;-75
2022/07/08 03:27:48;;;;;;;4.18;1.35;;;;;;;;;;5025094;28;20025;-74
2022/07/08 03:30:13;;;;;;;5.50;1.58;;;;;;;;;;5018416;28;20049;-73
2022/07/08 03:32:38;;;;;;;4.28;1.30;;;;;;;;;;5024658;28;20501;-73
2022/07/08 03:35:04;;;;;;;4.85;1.40;;;;;;;;;;5019502;28;20478;-75
2022/07/08 03:37:29;;;;;;;4.40;1.45;;;;;;;;;;5018556;28;20101;-74
2022/07/08 03:39:55;;;;;;;3.60;1.65;;;;;;;;;;5020616;28;20052;-75
2022/07/08 03:42:20;;;;;;;3.67;1.38;;;;;;;;;;5021576;28;20025;-74
2022/07/08 03:44:46;;;;;;;5.28;1.25;;;;;;;;;;5019120;28;20033;-76
2022/07/08 03:47:12;;;;;;;4.55;1.30;;;;;;;;;;5019787;28;20034;-75
2022/07/08 03:49:38;;;;;;;3.13;1.50;;;;;;;;;;5020905;28;20418;-75
2022/07/08 03:52:04;;;;;;;4.03;1.40;;;;;;;;;;5020671;28;20061;-74
2022/07/08 03:54:30;;;;;;;5.03;1.58;;;;;;;;;;5020993;28;20022;-73
2022/07/08 03:56:55;;;;;;;3.70;1.40;;;;;;;;;;5017130;28;20040;-73
2022/07/08 03:59:20;;;;;;;4.03;1.60;;;;;;;;;;5014914;28;20398;-73
2022/07/08 04:01:46;;;;;;;3.90;1.50;;;;;;;;;;5012301;28;20025;-73
2022/07/08 04:04:11;;;;;;;5.10;1.65;;;;;;;;;;5014606;28;20025;-76
2022/07/08 04:06:36;;;;;;;6.30;1.83;;;;;;;;;;5016835;28;20033;-75
2022/07/08 04:09:03;;;;;;;4.38;1.50;;;;;;;;;;5012593;28;20479;-74
2022/07/08 04:11:29;;;;;;;3.13;1.30;;;;;;;;;;5015112;28;20531;-75
2022/07/08 04:13:54;;;;;;;4.10;1.88;;;;;;;;;;5015343;28;20442;-74
2022/07/08 04:16:20;;;;;;;6.03;1.63;;;;;;;;;;5014137;28;20034;-74
2022/07/08 04:18:46;;;;;;;5.80;1.80;;;;;;;;;;5021312;28;20029;-74
2022/07/08 04:21:11;;;;;;;5.43;2.33;;;;;;;;;;5016006;28;20037;-73
2022/07/08 04:23:37;;;;;;;3.88;1.70;;;;;;;;;;5019987;28;20033;-73
2022/07/08 04:26:03;;;;;;;3.97;1.40;;;;;;;;;;5011884;28;20041;-75
2022/07/08 04:28:28;;;;;;;3.55;1.60;;;;;;;;;;5014465;28;20044;-75
2022/07/08 04:30:55;;;;;;;5.15;1.33;;;;;;;;;;5012889;28;20107;-76
2022/07/08 04:33:21;;;;;;;4.35;1.70;;;;;;;;;;5010261;28;20776;-75
2022/07/08 04:35:46;;;;;;;3.42;1.20;;;;;;;;;;5016383;28;20038;-76
2022/07/08 04:38:11;;;;;;;4.32;1.50;;;;;;;;;;5016444;28;20482;-75
2022/07/08 04:40:37;;;;;;;4.20;1.88;;;;;;;;;;5019536;28;20033;-74
2022/07/08 04:43:02;;;;;;;3.10;1.50;;;;;;;;;;5009635;28;20040;-75
2022/07/08 04:45:28;;;;;;;3.92;2.03;;;;;;;;;;5009677;28;20018;-75
2022/07/08 04:47:53;;;;;;;7.28;2.05;;;;;;;;;;5010439;28;20030;-74
2022/07/08 04:50:19;;;;;;;4.93;2.22;;;;;;;;;;5018398;28;20033;-75
2022/07/08 04:52:47;;;;;;;5.00;1.98;;;;;;;;;;5017007;28;20529;-76
2022/07/08 04:55:27;;;;;;;6.07;2.10;;;;;;;;;;5018835;28;20767;-73
2022/07/08 04:58:03;;;;;;;5.28;1.98;;;;;;;;;;5010344;28;20057;-76
2022/07/08 05:00:31;;;;;;;7.78;2.30;;;;;;;;;;5014566;28;20029;-75
2022/07/08 05:02:57;;;;;;;5.03;2.15;;;;;;;;;;5010273;28;20120;-75
2022/07/08 05:05:23;;;;;;;4.25;2.10;;;;;;;;;;5005189;28;20420;-74
2022/07/08 05:07:49;;;;;;;5.40;2.10;;;;;;;;;;5024201;28;20493;-77
2022/07/08 05:10:15;;;;;;;5.15;2.20;;;;;;;;;;5023064;28;20108;-74
2022/07/08 05:12:41;;;;;;;8.00;2.60;;;;;;;;;;5015700;28;21049;-75
2022/07/08 05:15:07;;;;;;;4.60;2.15;;;;;;;;;;5020160;28;20025;-74
2022/07/08 05:17:32;;;;;;;6.53;2.10;;;;;;;;;;5017688;28;20080;-76
2022/07/08 05:19:58;;;;;;;6.10;2.47;;;;;;;;;;5023112;28;20100;-75
2022/07/08 05:22:23;;;;;;;4.75;2.20;;;;;;;;;;5024286;28;20120;-75
2022/07/08 05:24:48;;;;;;;7.20;2.25;;;;;;;;;;5018284;28;20092;-73
2022/07/08 05:27:14;;;;;;;6.57;2.40;;;;;;;;;;5026114;28;20108;-74
2022/07/08 05:29:39;;;;;;;4.95;2.30;;;;;;;;;;5021587;28;20053;-75
2022/07/08 05:32:05;;;;;;;5.93;2.17;;;;;;;;;;5023478;28;20072;-73
2022/07/08 05:34:31;;;;;;;7.10;2.30;;;;;;;;;;5020409;28;20063;-75
2022/07/08 05:36:56;;;;;;;7.43;2.38;;;;;;;;;;5023329;28;20033;-75
2022/07/08 05:39:22;;;;;;;6.80;2.45;;;;;;;;;;5009579;28;20103;-74
2022/07/08 05:41:47;;;;;;;4.45;2.47;;;;;;;;;;5015951;28;20037;-75
2022/07/08 05:44:12;;;;;;;5.10;2.28;;;;;;;;;;5013095;28;20108;-73
2022/07/08 05:46:38;;;;;;;4.07;2.10;;;;;;;;;;5014094;28;20017;-74
2022/07/08 05:49:03;;;;;;;5.28;2.05;;;;;;;;;;5013786;28;20100;-76
2022/07/08 05:51:29;;;;;;;5.18;1.80;;;;;;;;;;5021036;28;20676;-75
2022/07/08 05:53:55;;;;;;;7.18;2.20;;;;;;;;;;5014266;28;20036;-75
2022/07/08 05:56:23;;;;;;;7.38;2.17;;;;;;;;;;5015824;28;20030;-74
2022/07/08 05:58:49;;;;;;;7.50;2.00;;;;;;;;;;5014709;28;20033;-75
2022/07/08 06:01:14;;;;;;;5.57;2.05;;;;;;;;;;5011245;28;20048;-73
2022/07/08 06:03:39;;;;;;;5.78;2.15;;;;;;;;;;5014986;28;20113;-75
2022/07/08 06:06:05;;;;;;;6.25;1.85;;;;;;;;;;5019647;28;20082;-74
2022/07/08 06:08:30;;;;;;;7.25;2.40;;;;;;;;;;5019830;28;20033;-75
2022/07/08 06:11:01;;;;;;;5.45;1.88;;;;;;;;;;5007481;28;20072;-74
2022/07/08 06:13:27;;;;;;;6.68;1.88;;;;;;;;;;5011857;28;20033;-76
2022/07/08 06:15:52;;;;;;;7.47;1.80;;;;;;;;;;5020240;28;20017;-75
2022/07/08 06:18:18;;;;;;;3.80;1.30;;;;;;;;;;5018669;28;20551;-75
2022/07/08 06:20:43;;;;;;;8.82;1.45;;;;;;;;;;5025769;28;20065;-75
2022/07/08 06:23:08;;;;;;;4.40;1.25;;;;;;;;;;5024897;28;20030;-74
2022/07/08 06:25:35;;;;;;;5.35;1.52;;;;;;;;;;5025182;28;20116;-73
2022/07/08 06:28:00;;;;;;;7.75;1.30;;;;;;;;;;5027094;28;20045;-74
2022/07/08 06:30:26;;;;;;;5.63;1.27;;;;;;;;;;5023316;28;20102;-75
2022/07/08 06:32:51;;;;;;;5.05;1.20;;;;;;;;;;5025999;28;20114;-73
2022/07/08 06:35:16;;;;;;;7.75;1.40;;;;;;;;;;5026897;28;20036;-74
2022/07/08 06:37:42;;;;;;;3.40;1.10;;;;;;;;;;5018874;28;20756;-74
2022/07/08 06:40:08;;;;;;;2.65;1.02;;;;;;;;;;5026205;28;21710;-74
2022/07/08 06:42:34;;;;;;;4.05;1.00;;;;;;;;;;5022617;28;20033;-74
2022/07/08 06:44:59;;;;;;;3.63;1.27;;;;;;;;;;5017975;28;20097;-73
2022/07/08 06:47:25;;;;;;;7.68;1.40;;;;;;;;;;5015285;28;20034;-76
2022/07/08 06:49:50;;;;;;;8.52;1.40;;;;;;;;;;5014777;28;20037;-75
2022/07/08 06:52:16;;;;;;;5.32;1.20;;;;;;;;;;5013307;28;20040;-75
2022/07/08 06:54:41;;;;;;;5.25;1.25;;;;;;;;;;5020543;28;20037;-74
2022/07/08 06:57:07;;;;;;;3.92;1.25;;;;;;;;;;5023229;28;20041;-75
2022/07/08 06:59:34;;;;;;;4.85;1.27;;;;;;;;;;5023326;28;20579;-72
2022/07/08 07:01:59;;;;;;;4.43;1.48;;;;;;;;;;5022758;28;20021;-75
2022/07/08 07:04:26;;;;;;;6.15;1.40;;;;;;;;;;5021615;28;20470;-75
2022/07/08 07:06:52;;;;;;;2.95;1.02;;;;;;;;;;5022988;28;20389;-75
2022/07/08 07:09:17;;;;;;;7.03;1.20;;;;;;;;;;5021126;28;20029;-75
2022/07/08 07:11:43;;;;;;;4.93;1.30;;;;;;;;;;5019570;28;20025;-75
2022/07/08 07:14:08;;;;;;;5.10;1.30;;;;;;;;;;5019224;28;20600;-76
2022/07/08 07:16:33;;;;;;;5.47;1.48;;;;;;;;;;5025482;28;20034;-76
2022/07/08 07:18:59;;;;;;;4.63;1.30;;;;;;;;;;5027479;28;20120;-75
2022/07/08 07:21:24;;;;;;;6.70;1.70;;;;;;;;;;5021476;28;20033;-73
2022/07/08 07:23:50;;;;;;;5.47;1.17;;;;;;;;;;5026156;28;20034;-75
2022/07/08 07:26:15;;;;;;;13.95;1.70;;;;;;;;;;5021549;28;20381;-74
2022/07/08 07:28:41;;;;;;;6.85;1.10;;;;;;;;;;5023510;28;20445;-74
2022/07/08 07:31:07;;;;;;;4.88;1.10;;;;;;;;;;5017619;28;20541;-75
2022/07/08 07:33:32;;;;;;;5.60;1.20;;;;;;;;;;5027004;28;20021;-74
2022/07/08 07:35:58;;;;;;;8.32;1.42;;;;;;;;;;5028673;28;20064;-76
2022/07/08 07:38:23;;;;;;;3.70;1.20;;;;;;;;;;5017071;28;20033;-74
2022/07/08 07:40:48;;;;;;;5.75;1.50;;;;;;;;;;5020126;28;20029;-73
2022/07/08 07:43:14;;;;;;;4.03;1.25;;;;;;;;;;5018768;28;20029;-75
2022/07/08 07:45:39;;;;;;;2.40;1.02;;;;;;;;;;5020997;28;20535;-74
2022/07/08 07:48:05;;;;;;;3.95;1.38;;;;;;;;;;5022827;28;20811;-73
2022/07/08 07:50:30;;;;;;;6.97;1.38;;;;;;;;;;5014787;28;20100;-75
2022/07/08 07:52:56;;;;;;;7.18;1.33;;;;;;;;;;5019367;28;20039;-75
2022/07/08 07:55:21;;;;;;;4.50;1.10;;;;;;;;;;5025795;28;20040;-75
2022/07/08 07:57:48;;;;;;;7.75;1.73;;;;;;;;;;5016314;28;20043;-74
2022/07/08 08:00:15;;;;;;;5.90;1.65;;;;;;;;;;5018525;28;20040;-75
2022/07/08 08:02:41;;;;;;;4.88;1.17;;;;;;;;;;5016849;28;20119;-74
2022/07/08 08:05:08;;;;;;;5.72;1.23;;;;;;;;;;5023946;28;20513;-73
2022/07/08 08:07:34;;;;;;;4.15;1.27;;;;;;;;;;5020095;28;20030;-75
2022/07/08 08:10:01;;;;;;;6.35;1.40;;;;;;;;;;5026722;28;20056;-74
2022/07/08 08:12:27;;;;;;;4.95;1.15;;;;;;;;;;5025133;28;20791;-73
2022/07/08 08:14:52;;;;;;;6.18;1.30;;;;;;;;;;5022085;28;20065;-75
2022/07/08 08:17:17;;;;;;;5.15;1.30;;;;;;;;;;5017789;28;20044;-74
2022/07/08 08:19:43;;;;;;;6.93;1.40;;;;;;;;;;5027334;28;20382;-74
2022/07/08 08:22:08;;;;;;;5.22;1.50;;;;;;;;;;5020937;28;20021;-74
2022/07/08 08:24:34;;;;;;;5.30;1.20;;;;;;;;;;5016736;28;20377;-74
2022/07/08 08:26:59;;;;;;;6.78;1.33;;;;;;;;;;5013095;28;20033;-73
2022/07/08 08:29:24;;;;;;;5.35;1.42;;;;;;;;;;5017649;28;20116;-74
2022/07/08 08:31:50;;;;;;;7.07;1.27;;;;;;;;;;5013202;28;20061;-75
2022/07/08 08:34:15;;;;;;;5.72;1.70;;;;;;;;;;5017652;28;20116;-75
2022/07/08 08:36:40;;;;;;;5.70;1.15;;;;;;;;;;5023169;28;20037;-75
2022/07/08 08:39:06;;;;;;;3.58;1.23;;;;;;;;;;5016523;28;20034;-75
2022/07/08 08:41:33;;;;;;;5.07;1.10;;;;;;;;;;5015986;28;20049;-75
2022/07/08 08:43:59;;;;;;;4.57;1.27;;;;;;;;;;5019521;28;20104;-75
2022/07/08 08:46:25;;;;;;;3.72;1.60;;;;;;;;;;5017007;28;20393;-74
2022/07/08 08:48:55;;;;;;;5.32;1.13;;;;;;;;;;5026021;28;20386;-75
2022/07/08 08:51:24;;;;;;;3.58;1.33;;;;;;;;;;5024261;28;20040;-74
2022/07/08 08:53:53;;;;;;;4.22;1.20;;;;;;;;;;5024298;28;20068;-74
2022/07/08 08:56:19;;;;;;;3.78;1.00;;;;;;;;;;5031404;28;20036;-74
2022/07/08 08:58:48;;;;;;;4.03;1.38;;;;;;;;;;5026293;28;20402;-74
2022/07/08 09:01:15;;;;;;;5.15;1.67;;;;;;;;;;5023805;28;20510;-74
2022/07/08 09:03:40;;;;;;;5.00;1.20;;;;;;;;;;5019388;28;20485;-72
2022/07/08 09:06:06;;;;;;;3.85;1.20;;;;;;;;;;5024717;28;20156;-74
2022/07/08 09:08:32;;;;;;;3.58;1.30;;;;;;;;;;5026174;28;20116;-73
2022/07/08 09:10:58;;;;;;;4.53;1.48;;;;;;;;;;5025085;28;20829;-74
2022/07/08 09:13:25;;;;;;;3.55;1.10;;;;;;;;;;5021969;28;20037;-74
2022/07/08 09:15:57;;;;;;;5.40;1.25;;;;;;;;;;5025176;28;20061;-74
2022/07/08 09:18:31;;;;;;;4.93;1.08;;;;;;;;;;5023247;28;20096;-75
2022/07/08 09:20:58;;;;;;;6.00;1.70;;;;;;;;;;5019453;28;20492;-75
2022/07/08 09:23:35;;;;;;;6.18;1.58;;;;;;;;;;5025074;28;20481;-75
2022/07/08 09:26:09;;;;;;;4.80;1.45;;;;;;;;;;5028364;28;20028;-74
2022/07/08 09:28:44;;;;;;;3.90;1.30;;;;;;;;;;5020631;28;20046;-74
2022/07/08 09:31:12;;;;;;;5.47;1.67;;;;;;;;;;5021061;28;20484;-72
2022/07/08 09:33:38;;;;;;;4.28;1.40;;;;;;;;;;5038342;28;20037;-73
2022/07/08 09:36:05;;;;;;;6.13;1.55;;;;;;;;;;5019508;28;20037;-74
2022/07/08 09:38:37;;;;;;;5.00;1.45;;;;;;;;;;5027221;28;20044;-74
2022/07/08 09:41:06;;;;;;;4.75;1.58;;;;;;;;;;5020284;28;20064;-74
2022/07/08 09:43:33;;;;;;;6.38;1.60;;;;;;;;;;5022060;28;20140;-74
2022/07/08 09:46:05;;;;;;;6.10;2.00;;;;;;;;;;5028692;28;20091;-74
2022/07/08 09:48:30;;;;;;;5.75;1.70;;;;;;;;;;5023944;28;20033;-74
2022/07/08 09:50:55;;;;;;;3.97;1.30;;;;;;;;;;5022604;28;20699;-73
2022/07/08 09:53:24;;;;;;;3.15;1.17;;;;;;;;;;5015384;28;20033;-73
2022/07/08 09:55:51;;;;;;;5.05;1.60;;;;;;;;;;5015620;28;20041;-74
2022/07/08 09:58:19;;;;;;;3.88;1.10;;;;;;;;;;5021174;28;20497;-73
2022/07/08 10:00:45;;;;;;;2.78;1.10;;;;;;;;;;5027526;28;20045;-74
2022/07/08 10:03:11;;;;;;;3.65;1.30;;;;;;;;;;5020640;28;20041;-74
2022/07/08 10:05:38;;;;;;;4.30;1.30;;;;;;;;;;5028511;28;20083;-74
2022/07/08 10:08:03;;;;;;;4.70;1.30;;;;;;;;;;5027540;28;20052;-74
2022/07/08 10:10:31;;;;;;;5.32;1.40;;;;;;;;;;5019269;28;20029;-74
2022/07/08 10:13:00;;;;;;;4.35;1.52;;;;;;;;;;5021128;28;20104;-74
2022/07/08 10:15:27;;;;;;;3.90;1.60;;;;;;;;;;5026810;28;20032;-74
2022/07/08 10:17:57;;;;;;;6.95;1.70;;;;;;;;;;5027821;28;20042;-73
2022/07/08 10:20:25;;;;;;;6.47;1.50;;;;;;;;;;5027488;28;20033;-73
2022/07/08 10:22:55;;;;;;;7.95;2.47;;;;;;;;;;5023134;28;20025;-74
2022/07/08 10:25:21;;;;;;;5.28;1.73;;;;;;;;;;5024233;28;20026;-74
2022/07/08 10:27:49;;;;;;;5.28;1.70;;;;;;;;;;5021316;28;20116;-74
2022/07/08 10:30:17;;;;;;;5.97;2.05;;;;;;;;;;5025709;28;20519;-73
2022/07/08 10:32:46;;;;;;;7.10;1.75;;;;;;;;;;5019183;28;20401;-74
2022/07/08 10:35:17;;;;;;;4.45;1.40;;;;;;;;;;5024196;28;20155;-71
2022/07/08 10:37:55;;;;;;;4.40;1.88;;;;;;;;;;5027290;28;20476;-71
2022/07/08 10:40:50;;;;;;;5.28;1.92;;;;;;;;;;5028912;28;20029;-73
2022/07/08 10:43:18;;;;;;;4.60;1.70;;;;;;;;;;5026596;28;22605;-70
2022/07/08 10:45:59;;;;;;;4.85;1.80;;;;;;;;;;5024966;28;20109;-73
2022/07/08 10:48:52;;;;;;;5.80;1.63;;;;;;;;;;5026019;28;20029;-74
2022/07/08 10:51:18;;;;;;;5.90;1.60;;;;;;;;;;5019723;28;20033;-72
2022/07/08 10:53:53;;;;;;;3.70;1.17;;;;;;;;;;5021944;28;20052;-71
2022/07/08 10:56:54;;;;;;;3.28;1.73;;;;;;;;;;5025004;28;20040;-70
2022/07/08 10:59:29;;;;;;;6.35;2.00;;;;;;;;;;5019764;28;20496;-72
2022/07/08 11:02:03;;;;;;;4.60;1.60;;;;;;;;;;5018493;28;20495;-73
2022/07/08 11:04:35;;;;;;;5.13;1.80;;;;;;;;;;5021646;28;20545;-74
2022/07/08 11:07:16;;;;;;;5.17;1.43;;;;;;;;;;5015701;28;20152;-70
2022/07/08 11:09:46;;;;;;;6.70;1.88;;;;;;;;;;5018551;28;20053;-73
2022/07/08 11:12:13;;;;;;;4.65;1.88;;;;;;;;;;5014565;28;20065;-70
2022/07/08 11:14:43;;;;;;;6.90;2.10;;;;;;;;;;5014730;28;20489;-70
2022/07/08 11:17:18;;;;;;;3.97;1.67;;;;;;;;;;5018538;28;20490;-74
2022/07/08 11:19:45;;;;;;;4.75;1.50;;;;;;;;;;5019756;28;20124;-73
2022/07/08 11:22:11;;;;;;;8.75;1.80;;;;;;;;;;5014515;28;20075;-70
2022/07/08 11:24:38;;;;;;;3.75;1.73;;;;;;;;;;5014984;28;20409;-70
2022/07/08 11:27:07;;;;;;;3.20;1.40;;;;;;;;;;5012573;28;20049;-71
2022/07/08 11:29:33;;;;;;;5.93;1.75;;;;;;;;;;5015869;28;20041;-73
2022/07/08 11:32:01;;;;;;;6.65;1.52;;;;;;;;;;5011171;28;20077;-71
2022/07/08 11:34:26;;;;;;;4.82;1.85;;;;;;;;;;5019842;28;20111;-71
2022/07/08 11:37:02;;;;;;;4.95;2.00;;;;;;;;;;5011723;28;20049;-73
2022/07/08 11:39:28;;;;;;;5.57;1.50;;;;;;;;;;5014603;28;20041;-73
2022/07/08 11:41:54;;;;;;;4.63;1.70;;;;;;;;;;5012213;28;20026;-73
2022/07/08 11:44:21;;;;;;;4.32;1.40;;;;;;;;;;5014664;28;20045;-73
2022/07/08 11:46:54;;;;;;;3.92;1.67;;;;;;;;;;5012406;28;20055;-73
2022/07/08 11:49:21;;;;;;;5.35;1.90;;;;;;;;;;5014616;28;20033;-71
2022/07/08 11:51:54;;;;;;;4.78;2.00;;;;;;;;;;5019096;28;20056;-73
2022/07/08 11:54:22;;;;;;;3.65;1.77;;;;;;;;;;5014205;28;20052;-73
2022/07/08 11:56:52;;;;;;;5.60;1.90;;;;;;;;;;5012693;28;20052;-72
2022/07/08 11:59:36;;;;;;;6.78;2.30;;;;;;;;;;5016394;28;20030;-73
2022/07/08 12:02:04;;;;;;;5.85;2.40;;;;;;;;;;5013263;28;20025;-71
2022/07/08 12:04:30;;;;;;;4.22;1.83;;;;;;;;;;5012699;28;20029;-73
2022/07/08 12:06:58;;;;;;;8.13;2.30;;;;;;;;;;5011877;28;20033;-73
2022/07/08 12:09:24;;;;;;;5.47;2.05;;;;;;;;;;5014920;28;20482;-73
2022/07/08 12:11:56;;;;;;;5.40;2.38;;;;;;;;;;5016714;28;20037;-73
2022/07/08 12:14:23;;;;;;;6.05;1.50;;;;;;;;;;5014007;28;20033;-71
2022/07/08 12:16:49;;;;;;;3.70;1.75;;;;;;;;;;5009411;28;20045;-73
2022/07/08 12:19:31;;;;;;;5.07;1.90;;;;;;;;;;5016424;28;20040;-73
2022/07/08 12:22:02;;;;;;;5.18;2.15;;;;;;;;;;5021818;28;20042;-73
2022/07/08 12:24:32;;;;;;;7.18;2.33;;;;;;;;;;5016425;28;20037;-73
2022/07/08 12:26:59;;;;;;;5.15;2.03;;;;;;;;;;5016029;28;20117;-72
2022/07/08 12:29:26;;;;;;;5.25;1.65;;;;;;;;;;5026991;28;20033;-73
2022/07/08 12:31:51;;;;;;;4.63;1.63;;;;;;;;;;5019048;28;20049;-73
2022/07/08 12:34:19;;;;;;;4.22;1.60;;;;;;;;;;5016044;28;20351;-72
2022/07/08 12:36:46;;;;;;;5.53;2.20;;;;;;;;;;5017348;28;20084;-73
2022/07/08 12:39:19;;;;;;;5.25;1.88;;;;;;;;;;5016934;28;20509;-72
2022/07/08 12:42:07;;;;;;;3.88;1.92;;;;;;;;;;5012519;28;20045;-71
2022/07/08 12:44:40;;;;;;;6.75;1.90;;;;;;;;;;5019192;28;20591;-72
2022/07/08 12:47:13;;;;;;;5.13;1.80;;;;;;;;;;5021326;28;20135;-73
2022/07/08 12:49:40;;;;;;;5.10;1.52;;;;;;;;;;5020773;28;20034;-73
2022/07/08 12:52:07;;;;;;;4.07;1.77;;;;;;;;;;5025692;28;20510;-73
2022/07/08 12:54:34;;;;;;;6.40;2.03;;;;;;;;;;5020495;28;20029;-73
2022/07/08 12:57:00;;;;;;;5.07;2.10;;;;;;;;;;5018931;28;20493;-72
2022/07/08 12:59:27;;;;;;;5.68;2.00;;;;;;;;;;5021307;28;20465;-71
2022/07/08 13:01:54;;;;;;;2.85;1.50;;;;;;;;;;5026225;28;20118;-73
2022/07/08 13:04:20;;;;;;;5.68;2.00;;;;;;;;;;5021404;28;20030;-73
2022/07/08 13:06:48;;;;;;;6.13;1.92;;;;;;;;;;5020070;28;20045;-73
2022/07/08 13:09:15;;;;;;;8.25;2.25;;;;;;;;;;5021553;28;20056;-71
2022/07/08 13:11:41;;;;;;;4.43;1.67;;;;;;;;;;5024363;28;20029;-73
2022/07/08 13:14:07;;;;;;;5.15;1.88;;;;;;;;;;5028558;28;20083;-75
2022/07/08 13:16:33;;;;;;;4.82;1.65;;;;;;;;;;5025201;28;20080;-73
2022/07/08 13:19:00;;;;;;;7.55;1.63;;;;;;;;;;5017736;28;20490;-73
2022/07/08 13:21:26;;;;;;;4.93;2.30;;;;;;;;;;5013984;28;20385;-73
2022/07/08 13:23:51;;;;;;;3.60;1.80;;;;;;;;;;5018348;28;20025;-73
2022/07/08 13:26:16;;;;;;;5.32;2.28;;;;;;;;;;5022053;28;20026;-73
2022/07/08 13:28:42;;;;;;;4.70;1.80;;;;;;;;;;5027420;28;20103;-72
2022/07/08 13:31:07;;;;;;;5.32;1.92;;;;;;;;;;5030858;28;20049;-73
2022/07/08 13:33:33;;;;;;;3.72;1.70;;;;;;;;;;5023930;28;20029;-73
2022/07/08 13:35:59;;;;;;;3.85;1.80;;;;;;;;;;5027071;28;20040;-73
2022/07/08 13:38:24;;;;;;;9.00;2.10;;;;;;;;;;5024319;28;20045;-73
2022/07/08 13:40:51;;;;;;;3.03;1.63;;;;;;;;;;5020716;28;20052;-73
2022/07/08 13:43:17;;;;;;;5.93;2.22;;;;;;;;;;5026882;28;20033;-71
2022/07/08 13:45:42;;;;;;;5.13;1.92;;;;;;;;;;5026616;28;20509;-73
2022/07/08 13:48:08;;;;;;;4.47;1.80;;;;;;;;;;5023606;28;20021;-73
2022/07/08 13:50:33;;;;;;;3.83;1.70;;;;;;;;;;5024566;28;20080;-72
2022/07/08 13:52:58;;;;;;;7.03;2.17;;;;;;;;;;5016165;28;20025;-72
2022/07/08 13:55:24;;;;;;;3.75;1.50;;;;;;;;;;5013331;28;20053;-71
2022/07/08 13:57:49;;;;;;;3.03;1.40;;;;;;;;;;5018380;28;20040;-71
2022/07/08 14:00:15;;;;;;;3.60;1.40;;;;;;;;;;5022116;28;20485;-73
2022/07/08 14:02:40;;;;;;;3.65;1.75;;;;;;;;;;5019349;28;20026;-71
2022/07/08 14:05:06;;;;;;;3.83;1.70;;;;;;;;;;5018707;28;20018;-73
2022/07/08 14:07:32;;;;;;;4.47;1.77;;;;;;;;;;5011736;28;20524;-73
2022/07/08 14:09:57;;;;;;;4.25;1.50;;;;;;;;;;5019943;28;20165;-70
2022/07/08 14:12:22;;;;;;;3.30;1.50;;;;;;;;;;5016211;28;20642;-72
2022/07/08 14:14:48;;;;;;;3.67;1.98;;;;;;;;;;5023673;28;20029;-72
2022/07/08 14:17:15;;;;;;;4.38;1.60;;;;;;;;;;5038004;28;20037;-73
2022/07/08 14:19:40;;;;;;;5.10;1.63;;;;;;;;;;5018499;28;20030;-73
2022/07/08 14:22:06;;;;;;;4.90;1.45;;;;;;;;;;5017099;28;20053;-73
2022/07/08 14:24:31;;;;;;;3.35;1.60;;;;;;;;;;5024038;28;20470;-73
2022/07/08 14:26:57;;;;;;;3.42;1.50;;;;;;;;;;5023527;28;20116;-72
2022/07/08 14:29:22;;;;;;;2.97;1.50;;;;;;;;;;5025111;28;20385;-72
2022/07/08 14:31:48;;;;;;;3.15;1.15;;;;;;;;;;5024439;28;20059;-71
2022/07/08 14:34:13;;;;;;;2.88;1.40;;;;;;;;;;5023707;28;20432;-73
2022/07/08 14:36:39;;;;;;;4.20;1.30;;;;;;;;;;5017330;28;21455;-73
2022/07/08 14:39:04;;;;;;;2.58;1.23;;;;;;;;;;5013144;28;20030;-71
2022/07/08 14:41:30;;;;;;;2.67;1.23;;;;;;;;;;5021541;28;20527;-73